sensor_id;sensor_type;location;lat;lon;timestamp;temperature;humidity
44190;DHT22;29856;52.144;5.430;2023-04-03T00:01:26;5.30;99.90
44190;DHT22;29856;52.144;5.430;2023-04-03T00:03:51;5.30;99.90
44190;DHT22;29856;52.144;5.430;2023-04-03T00:06:17;5.20;99.90
44190;DHT22;29856;52.144;5.430;2023-04-03T00:08:43;5.30;99.90
44190;DHT22;29856;52.144;5.430;2023-04-03T00:11:09;5.30;99.90
44190;DHT22;29856;52.144;5.430;2023-04-03T00:13:35;5.20;99.90
44190;DHT22;29856;52.144;5.430;2023-04-03T00:16:01;5.10;99.90
44190;DHT22;29856;52.144;5.430;2023-04-03T00:18:26;5.00;99.90
44190;DHT22;29856;52.144;5.430;2023-04-03T00:20:52;5.00;99.90
44190;DHT22;29856;52.144;5.430;2023-04-03T00:23:17;5.00;99.90
44190;DHT22;29856;52.144;5.430;2023-04-03T00:25:43;5.00;99.90
44190;DHT22;29856;52.144;5.430;2023-04-03T00:28:09;4.90;99.90
44190;DHT22;29856;52.144;5.430;2023-04-03T00:30:34;4.80;99.90
44190;DHT22;29856;52.144;5.430;2023-04-03T00:33:00;4.90;99.90
44190;DHT22;29856;52.144;5.430;2023-04-03T00:35:26;4.90;99.90
44190;DHT22;29856;52.144;5.430;2023-04-03T00:37:53;4.80;99.90
44190;DHT22;29856;52.144;5.430;2023-04-03T00:40:20;4.80;99.90
44190;DHT22;29856;52.144;5.430;2023-04-03T00:42:48;4.80;99.90
44190;DHT22;29856;52.144;5.430;2023-04-03T00:45:29;4.70;99.90
44190;DHT22;29856;52.144;5.430;2023-04-03T00:47:55;4.70;99.90
44190;DHT22;29856;52.144;5.430;2023-04-03T00:50:21;4.80;99.90
44190;DHT22;29856;52.144;5.430;2023-04-03T00:52:47;4.80;99.90
44190;DHT22;29856;52.144;5.430;2023-04-03T00:55:13;4.80;99.90
44190;DHT22;29856;52.144;5.430;2023-04-03T00:57:39;4.80;99.90
44190;DHT22;29856;52.144;5.430;2023-04-03T01:00:10;4.80;99.90
44190;DHT22;29856;52.144;5.430;2023-04-03T01:02:37;4.70;99.90
44190;DHT22;29856;52.144;5.430;2023-04-03T01:05:03;4.70;99.90
44190;DHT22;29856;52.144;5.430;2023-04-03T01:07:32;4.70;99.90
44190;DHT22;29856;52.144;5.430;2023-04-03T01:10:00;4.70;99.90
44190;DHT22;29856;52.144;5.430;2023-04-03T01:12:27;4.80;99.90
44190;DHT22;29856;52.144;5.430;2023-04-03T01:15:01;4.70;99.90
44190;DHT22;29856;52.144;5.430;2023-04-03T01:28:05;4.70;99.90
44190;DHT22;29856;52.144;5.430;2023-04-03T01:30:35;4.60;99.90
44190;DHT22;29856;52.144;5.430;2023-04-03T01:33:01;4.60;99.90
44190;DHT22;29856;52.144;5.430;2023-04-03T01:35:27;4.70;99.90
44190;DHT22;29856;52.144;5.430;2023-04-03T01:37:52;4.70;99.90
44190;DHT22;29856;52.144;5.430;2023-04-03T01:40:18;4.60;99.90
44190;DHT22;29856;52.144;5.430;2023-04-03T01:42:44;4.60;99.90
44190;DHT22;29856;52.144;5.430;2023-04-03T01:45:09;4.50;99.90
44190;DHT22;29856;52.144;5.430;2023-04-03T01:47:35;4.50;99.90
44190;DHT22;29856;52.144;5.430;2023-04-03T01:50:00;4.50;99.90
44190;DHT22;29856;52.144;5.430;2023-04-03T01:52:26;4.50;99.90
44190;DHT22;29856;52.144;5.430;2023-04-03T01:54:52;4.50;99.90
44190;DHT22;29856;52.144;5.430;2023-04-03T01:57:17;4.50;99.90
44190;DHT22;29856;52.144;5.430;2023-04-03T01:59:43;4.40;99.90
44190;DHT22;29856;52.144;5.430;2023-04-03T02:02:09;4.40;99.90
44190;DHT22;29856;52.144;5.430;2023-04-03T02:04:34;4.40;99.90
44190;DHT22;29856;52.144;5.430;2023-04-03T02:06:59;4.30;99.90
44190;DHT22;29856;52.144;5.430;2023-04-03T02:09:25;4.40;99.90
44190;DHT22;29856;52.144;5.430;2023-04-03T02:11:52;4.30;99.90
44190;DHT22;29856;52.144;5.430;2023-04-03T02:14:17;4.30;99.90
44190;DHT22;29856;52.144;5.430;2023-04-03T02:16:43;4.30;99.90
44190;DHT22;29856;52.144;5.430;2023-04-03T02:19:08;4.20;99.90
44190;DHT22;29856;52.144;5.430;2023-04-03T02:21:34;4.20;99.90
44190;DHT22;29856;52.144;5.430;2023-04-03T02:23:59;4.10;99.90
44190;DHT22;29856;52.144;5.430;2023-04-03T02:26:25;4.10;99.90
44190;DHT22;29856;52.144;5.430;2023-04-03T02:28:50;4.10;99.90
44190;DHT22;29856;52.144;5.430;2023-04-03T02:31:16;4.00;99.90
44190;DHT22;29856;52.144;5.430;2023-04-03T02:33:41;4.00;99.90
44190;DHT22;29856;52.144;5.430;2023-04-03T02:36:07;4.00;99.90
44190;DHT22;29856;52.144;5.430;2023-04-03T02:38:33;3.90;99.90
44190;DHT22;29856;52.144;5.430;2023-04-03T02:41:00;3.90;99.90
44190;DHT22;29856;52.144;5.430;2023-04-03T02:43:27;3.90;99.90
44190;DHT22;29856;52.144;5.430;2023-04-03T02:45:53;4.00;99.90
44190;DHT22;29856;52.144;5.430;2023-04-03T02:48:18;3.90;99.90
44190;DHT22;29856;52.144;5.430;2023-04-03T02:50:44;4.00;99.90
44190;DHT22;29856;52.144;5.430;2023-04-03T02:53:09;4.00;99.90
44190;DHT22;29856;52.144;5.430;2023-04-03T02:55:35;4.10;99.90
44190;DHT22;29856;52.144;5.430;2023-04-03T02:58:00;4.00;99.90
44190;DHT22;29856;52.144;5.430;2023-04-03T03:00:26;4.00;99.90
44190;DHT22;29856;52.144;5.430;2023-04-03T03:02:51;4.10;99.90
44190;DHT22;29856;52.144;5.430;2023-04-03T03:05:17;4.00;99.90
44190;DHT22;29856;52.144;5.430;2023-04-03T03:07:42;4.00;99.90
44190;DHT22;29856;52.144;5.430;2023-04-03T03:10:08;3.90;99.90
44190;DHT22;29856;52.144;5.430;2023-04-03T03:12:34;3.90;99.90
44190;DHT22;29856;52.144;5.430;2023-04-03T03:14:59;4.10;99.90
44190;DHT22;29856;52.144;5.430;2023-04-03T03:17:24;4.10;99.90
44190;DHT22;29856;52.144;5.430;2023-04-03T03:19:50;4.00;99.90
44190;DHT22;29856;52.144;5.430;2023-04-03T03:22:16;3.90;99.90
44190;DHT22;29856;52.144;5.430;2023-04-03T03:24:42;4.00;99.90
44190;DHT22;29856;52.144;5.430;2023-04-03T03:27:07;4.00;99.90
44190;DHT22;29856;52.144;5.430;2023-04-03T03:29:33;4.10;99.90
44190;DHT22;29856;52.144;5.430;2023-04-03T03:31:58;4.30;99.90
44190;DHT22;29856;52.144;5.430;2023-04-03T03:34:24;4.30;99.90
44190;DHT22;29856;52.144;5.430;2023-04-03T03:36:49;4.30;99.90
44190;DHT22;29856;52.144;5.430;2023-04-03T03:39:14;4.20;99.90
44190;DHT22;29856;52.144;5.430;2023-04-03T03:41:40;4.00;99.90
44190;DHT22;29856;52.144;5.430;2023-04-03T03:44:05;4.00;99.90
44190;DHT22;29856;52.144;5.430;2023-04-03T03:46:32;3.90;99.90
44190;DHT22;29856;52.144;5.430;2023-04-03T03:48:58;4.00;99.90
44190;DHT22;29856;52.144;5.430;2023-04-03T03:51:23;4.10;99.90
44190;DHT22;29856;52.144;5.430;2023-04-03T03:53:49;4.10;99.90
44190;DHT22;29856;52.144;5.430;2023-04-03T03:56:14;4.10;99.90
44190;DHT22;29856;52.144;5.430;2023-04-03T03:58:40;4.00;99.90
44190;DHT22;29856;52.144;5.430;2023-04-03T04:01:06;3.90;99.90
44190;DHT22;29856;52.144;5.430;2023-04-03T04:03:32;3.90;99.90
44190;DHT22;29856;52.144;5.430;2023-04-03T04:05:58;4.00;99.90
44190;DHT22;29856;52.144;5.430;2023-04-03T04:08:24;4.00;99.90
44190;DHT22;29856;52.144;5.430;2023-04-03T04:10:50;4.10;99.90
44190;DHT22;29856;52.144;5.430;2023-04-03T04:13:15;4.00;99.90
44190;DHT22;29856;52.144;5.430;2023-04-03T04:15:42;3.90;99.90
44190;DHT22;29856;52.144;5.430;2023-04-03T04:18:07;3.90;99.90
44190;DHT22;29856;52.144;5.430;2023-04-03T04:20:33;3.80;99.90
44190;DHT22;29856;52.144;5.430;2023-04-03T04:22:59;3.80;99.90
44190;DHT22;29856;52.144;5.430;2023-04-03T04:25:25;3.80;99.90
44190;DHT22;29856;52.144;5.430;2023-04-03T04:27:51;3.70;99.90
44190;DHT22;29856;52.144;5.430;2023-04-03T04:30:16;3.70;99.90
44190;DHT22;29856;52.144;5.430;2023-04-03T04:32:42;3.80;99.90
44190;DHT22;29856;52.144;5.430;2023-04-03T04:35:07;3.80;99.90
44190;DHT22;29856;52.144;5.430;2023-04-03T04:37:33;3.80;99.90
44190;DHT22;29856;52.144;5.430;2023-04-03T04:39:59;3.70;99.90
44190;DHT22;29856;52.144;5.430;2023-04-03T04:42:24;3.70;99.90
44190;DHT22;29856;52.144;5.430;2023-04-03T04:44:50;3.60;99.90
44190;DHT22;29856;52.144;5.430;2023-04-03T04:47:15;3.80;99.90
44190;DHT22;29856;52.144;5.430;2023-04-03T04:49:41;4.10;99.90
44190;DHT22;29856;52.144;5.430;2023-04-03T04:52:06;4.00;99.90
44190;DHT22;29856;52.144;5.430;2023-04-03T04:54:32;4.10;99.90
44190;DHT22;29856;52.144;5.430;2023-04-03T04:56:58;3.80;99.90
44190;DHT22;29856;52.144;5.430;2023-04-03T04:59:23;3.80;99.90
44190;DHT22;29856;52.144;5.430;2023-04-03T05:01:49;3.70;99.90
44190;DHT22;29856;52.144;5.430;2023-04-03T05:04:14;3.60;99.90
44190;DHT22;29856;52.144;5.430;2023-04-03T05:06:40;3.60;99.90
44190;DHT22;29856;52.144;5.430;2023-04-03T05:09:05;3.40;99.90
44190;DHT22;29856;52.144;5.430;2023-04-03T05:11:31;3.40;99.90
44190;DHT22;29856;52.144;5.430;2023-04-03T05:13:57;3.40;99.90
44190;DHT22;29856;52.144;5.430;2023-04-03T05:16:22;3.30;99.90
44190;DHT22;29856;52.144;5.430;2023-04-03T05:18:48;3.30;99.90
44190;DHT22;29856;52.144;5.430;2023-04-03T05:21:13;3.40;99.90
44190;DHT22;29856;52.144;5.430;2023-04-03T05:23:39;3.30;99.90
44190;DHT22;29856;52.144;5.430;2023-04-03T05:26:04;3.30;99.90
44190;DHT22;29856;52.144;5.430;2023-04-03T05:28:30;3.30;99.90
44190;DHT22;29856;52.144;5.430;2023-04-03T05:30:57;3.20;99.90
44190;DHT22;29856;52.144;5.430;2023-04-03T05:33:23;3.10;99.90
44190;DHT22;29856;52.144;5.430;2023-04-03T05:35:49;3.10;99.90
44190;DHT22;29856;52.144;5.430;2023-04-03T05:38:15;3.10;99.90
44190;DHT22;29856;52.144;5.430;2023-04-03T05:40:40;3.20;99.90
44190;DHT22;29856;52.144;5.430;2023-04-03T05:43:06;3.30;99.90
44190;DHT22;29856;52.144;5.430;2023-04-03T05:45:31;3.30;99.90
44190;DHT22;29856;52.144;5.430;2023-04-03T05:47:57;3.30;99.90
44190;DHT22;29856;52.144;5.430;2023-04-03T05:50:23;3.10;99.90
44190;DHT22;29856;52.144;5.430;2023-04-03T05:52:49;3.10;99.90
44190;DHT22;29856;52.144;5.430;2023-04-03T05:55:16;3.10;99.90
44190;DHT22;29856;52.144;5.430;2023-04-03T05:57:42;3.00;99.90
44190;DHT22;29856;52.144;5.430;2023-04-03T06:00:10;3.10;99.90
44190;DHT22;29856;52.144;5.430;2023-04-03T06:02:37;3.00;99.90
44190;DHT22;29856;52.144;5.430;2023-04-03T06:05:02;3.00;99.90
44190;DHT22;29856;52.144;5.430;2023-04-03T06:07:28;3.00;99.90
44190;DHT22;29856;52.144;5.430;2023-04-03T06:09:55;3.10;99.90
44190;DHT22;29856;52.144;5.430;2023-04-03T06:12:22;3.10;99.90
44190;DHT22;29856;52.144;5.430;2023-04-03T06:14:48;3.10;99.90
44190;DHT22;29856;52.144;5.430;2023-04-03T06:17:15;3.10;99.90
44190;DHT22;29856;52.144;5.430;2023-04-03T06:19:40;3.20;99.90
44190;DHT22;29856;52.144;5.430;2023-04-03T06:22:07;3.20;99.90
44190;DHT22;29856;52.144;5.430;2023-04-03T06:24:33;3.30;99.90
44190;DHT22;29856;52.144;5.430;2023-04-03T06:26:59;3.20;99.90
44190;DHT22;29856;52.144;5.430;2023-04-03T06:29:24;3.50;99.90
44190;DHT22;29856;52.144;5.430;2023-04-03T06:31:51;3.50;99.90
44190;DHT22;29856;52.144;5.430;2023-04-03T06:34:17;3.50;99.90
44190;DHT22;29856;52.144;5.430;2023-04-03T06:36:43;3.50;99.90
44190;DHT22;29856;52.144;5.430;2023-04-03T06:39:13;3.50;99.90
44190;DHT22;29856;52.144;5.430;2023-04-03T06:41:39;3.60;99.90
44190;DHT22;29856;52.144;5.430;2023-04-03T06:44:05;3.60;99.90
44190;DHT22;29856;52.144;5.430;2023-04-03T06:46:30;3.70;99.90
44190;DHT22;29856;52.144;5.430;2023-04-03T06:48:56;3.80;99.90
44190;DHT22;29856;52.144;5.430;2023-04-03T06:51:26;4.00;99.90
44190;DHT22;29856;52.144;5.430;2023-04-03T06:53:53;3.90;99.90
44190;DHT22;29856;52.144;5.430;2023-04-03T06:56:19;4.00;99.90
44190;DHT22;29856;52.144;5.430;2023-04-03T06:58:45;4.00;99.90
44190;DHT22;29856;52.144;5.430;2023-04-03T07:01:13;4.20;99.90
44190;DHT22;29856;52.144;5.430;2023-04-03T07:03:39;4.20;99.90
44190;DHT22;29856;52.144;5.430;2023-04-03T07:06:06;4.20;99.90
44190;DHT22;29856;52.144;5.430;2023-04-03T07:08:32;4.20;99.90
44190;DHT22;29856;52.144;5.430;2023-04-03T07:10:58;4.30;99.90
44190;DHT22;29856;52.144;5.430;2023-04-03T07:13:24;4.50;99.90
44190;DHT22;29856;52.144;5.430;2023-04-03T07:15:49;4.60;99.90
44190;DHT22;29856;52.144;5.430;2023-04-03T07:18:15;4.60;99.90
44190;DHT22;29856;52.144;5.430;2023-04-03T07:20:40;4.60;99.90
44190;DHT22;29856;52.144;5.430;2023-04-03T07:23:06;4.80;99.90
44190;DHT22;29856;52.144;5.430;2023-04-03T07:25:31;4.80;99.90
44190;DHT22;29856;52.144;5.430;2023-04-03T07:27:57;4.80;99.90
44190;DHT22;29856;52.144;5.430;2023-04-03T07:30:23;4.90;99.90
44190;DHT22;29856;52.144;5.430;2023-04-03T07:32:48;5.10;99.90
44190;DHT22;29856;52.144;5.430;2023-04-03T07:35:15;5.10;99.90
44190;DHT22;29856;52.144;5.430;2023-04-03T07:37:40;5.10;99.90
44190;DHT22;29856;52.144;5.430;2023-04-03T07:40:06;5.20;99.90
44190;DHT22;29856;52.144;5.430;2023-04-03T07:42:32;5.10;99.90
44190;DHT22;29856;52.144;5.430;2023-04-03T07:44:57;5.30;99.90
44190;DHT22;29856;52.144;5.430;2023-04-03T07:47:23;5.40;99.90
44190;DHT22;29856;52.144;5.430;2023-04-03T07:49:48;5.50;99.90
44190;DHT22;29856;52.144;5.430;2023-04-03T07:52:14;5.70;99.90
44190;DHT22;29856;52.144;5.430;2023-04-03T07:54:40;5.80;99.90
44190;DHT22;29856;52.144;5.430;2023-04-03T07:57:05;5.80;99.90
44190;DHT22;29856;52.144;5.430;2023-04-03T07:59:31;5.90;99.90
44190;DHT22;29856;52.144;5.430;2023-04-03T08:01:56;5.70;99.90
44190;DHT22;29856;52.144;5.430;2023-04-03T08:04:22;6.00;99.90
44190;DHT22;29856;52.144;5.430;2023-04-03T08:06:48;5.90;99.90
44190;DHT22;29856;52.144;5.430;2023-04-03T08:09:16;5.90;99.90
44190;DHT22;29856;52.144;5.430;2023-04-03T08:11:42;6.10;99.90
44190;DHT22;29856;52.144;5.430;2023-04-03T08:14:08;6.10;99.90
44190;DHT22;29856;52.144;5.430;2023-04-03T08:16:33;6.20;99.90
44190;DHT22;29856;52.144;5.430;2023-04-03T08:18:59;6.10;99.90
44190;DHT22;29856;52.144;5.430;2023-04-03T08:21:25;6.20;99.90
44190;DHT22;29856;52.144;5.430;2023-04-03T08:23:51;6.20;99.90
44190;DHT22;29856;52.144;5.430;2023-04-03T08:26:19;6.20;99.90
44190;DHT22;29856;52.144;5.430;2023-04-03T08:28:45;6.40;99.90
44190;DHT22;29856;52.144;5.430;2023-04-03T08:31:13;6.30;99.90
44190;DHT22;29856;52.144;5.430;2023-04-03T08:33:39;6.30;99.90
44190;DHT22;29856;52.144;5.430;2023-04-03T08:36:06;6.40;99.90
44190;DHT22;29856;52.144;5.430;2023-04-03T08:38:33;6.70;99.90
44190;DHT22;29856;52.144;5.430;2023-04-03T08:43:58;7.00;99.90
44190;DHT22;29856;52.144;5.430;2023-04-03T08:49:02;7.20;99.90
44190;DHT22;29856;52.144;5.430;2023-04-03T08:51:29;7.30;99.90
44190;DHT22;29856;52.144;5.430;2023-04-03T08:54:01;7.30;99.90
44190;DHT22;29856;52.144;5.430;2023-04-03T08:56:30;7.30;99.90
44190;DHT22;29856;52.144;5.430;2023-04-03T08:58:58;7.30;99.90
44190;DHT22;29856;52.144;5.430;2023-04-03T09:01:36;7.40;99.90
44190;DHT22;29856;52.144;5.430;2023-04-03T09:04:10;7.60;99.90
44190;DHT22;29856;52.144;5.430;2023-04-03T09:06:37;7.70;98.00
44190;DHT22;29856;52.144;5.430;2023-04-03T09:09:14;7.70;96.30
44190;DHT22;29856;52.144;5.430;2023-04-03T09:14:42;7.60;95.50
44190;DHT22;29856;52.144;5.430;2023-04-03T09:17:15;7.70;96.50
44190;DHT22;29856;52.144;5.430;2023-04-03T09:20:17;7.70;96.40
44190;DHT22;29856;52.144;5.430;2023-04-03T09:22:44;8.00;97.10
44190;DHT22;29856;52.144;5.430;2023-04-03T09:25:22;8.10;96.80
44190;DHT22;29856;52.144;5.430;2023-04-03T09:27:48;8.10;96.40
44190;DHT22;29856;52.144;5.430;2023-04-03T09:30:20;8.20;97.10
44190;DHT22;29856;52.144;5.430;2023-04-03T09:32:47;8.00;93.40
44190;DHT22;29856;52.144;5.430;2023-04-03T09:35:26;8.20;95.70
44190;DHT22;29856;52.144;5.430;2023-04-03T09:38:18;8.30;94.90
44190;DHT22;29856;52.144;5.430;2023-04-03T09:41:05;8.30;94.80
44190;DHT22;29856;52.144;5.430;2023-04-03T09:43:35;8.30;93.30
44190;DHT22;29856;52.144;5.430;2023-04-03T09:48:57;8.30;92.60
44190;DHT22;29856;52.144;5.430;2023-04-03T09:51:30;8.40;92.70
44190;DHT22;29856;52.144;5.430;2023-04-03T09:53:56;8.30;92.80
44190;DHT22;29856;52.144;5.430;2023-04-03T09:59:06;8.50;91.30
44190;DHT22;29856;52.144;5.430;2023-04-03T10:01:57;8.70;92.30
44190;DHT22;29856;52.144;5.430;2023-04-03T10:04:23;8.60;91.90
44190;DHT22;29856;52.144;5.430;2023-04-03T10:06:50;8.80;93.10
44190;DHT22;29856;52.144;5.430;2023-04-03T10:09:30;8.50;91.00
44190;DHT22;29856;52.144;5.430;2023-04-03T10:12:12;8.70;92.30
44190;DHT22;29856;52.144;5.430;2023-04-03T10:14:59;8.80;92.80
44190;DHT22;29856;52.144;5.430;2023-04-03T10:17:48;8.80;91.70
44190;DHT22;29856;52.144;5.430;2023-04-03T10:20:39;8.80;91.40
44190;DHT22;29856;52.144;5.430;2023-04-03T10:34:43;9.20;91.70
44190;DHT22;29856;52.144;5.430;2023-04-03T10:45:57;9.40;92.10
44190;DHT22;29856;52.144;5.430;2023-04-03T10:54:05;9.30;91.80
44190;DHT22;29856;52.144;5.430;2023-04-03T10:56:47;9.50;91.80
44190;DHT22;29856;52.144;5.430;2023-04-03T10:59:30;9.20;91.00
44190;DHT22;29856;52.144;5.430;2023-04-03T11:02:00;9.40;91.70
44190;DHT22;29856;52.144;5.430;2023-04-03T11:04:29;9.50;92.00
44190;DHT22;29856;52.144;5.430;2023-04-03T11:07:03;9.70;92.00
44190;DHT22;29856;52.144;5.430;2023-04-03T11:09:33;9.90;92.10
44190;DHT22;29856;52.144;5.430;2023-04-03T11:14:47;10.00;91.80
44190;DHT22;29856;52.144;5.430;2023-04-03T11:17:31;10.20;91.90
44190;DHT22;29856;52.144;5.430;2023-04-03T11:23:06;9.90;91.60
44190;DHT22;29856;52.144;5.430;2023-04-03T11:25:36;9.80;91.40
44190;DHT22;29856;52.144;5.430;2023-04-03T11:28:05;9.80;91.40
44190;DHT22;29856;52.144;5.430;2023-04-03T11:36:12;10.20;92.60
44190;DHT22;29856;52.144;5.430;2023-04-03T11:38:44;10.10;91.40
44190;DHT22;29856;52.144;5.430;2023-04-03T11:41:11;10.20;92.00
44190;DHT22;29856;52.144;5.430;2023-04-03T11:43:56;10.20;92.00
44190;DHT22;29856;52.144;5.430;2023-04-03T11:46:22;10.40;91.20
44190;DHT22;29856;52.144;5.430;2023-04-03T11:48:50;10.50;91.40
44190;DHT22;29856;52.144;5.430;2023-04-03T11:53:53;10.60;91.70
44190;DHT22;29856;52.144;5.430;2023-04-03T11:59:23;10.50;91.30
44190;DHT22;29856;52.144;5.430;2023-04-03T12:01:53;10.50;91.50
44190;DHT22;29856;52.144;5.430;2023-04-03T12:04:22;10.40;91.40
44190;DHT22;29856;52.144;5.430;2023-04-03T12:09:57;10.40;91.10
44190;DHT22;29856;52.144;5.430;2023-04-03T12:12:34;10.60;91.40
44190;DHT22;29856;52.144;5.430;2023-04-03T12:15:24;10.70;91.20
44190;DHT22;29856;52.144;5.430;2023-04-03T12:17:50;10.50;89.50
44190;DHT22;29856;52.144;5.430;2023-04-03T12:23:28;10.50;91.10
44190;DHT22;29856;52.144;5.430;2023-04-03T12:26:01;10.70;91.30
44190;DHT22;29856;52.144;5.430;2023-04-03T12:28:27;10.90;91.30
44190;DHT22;29856;52.144;5.430;2023-04-03T12:30:53;10.80;90.60
44190;DHT22;29856;52.144;5.430;2023-04-03T12:34:01;11.00;92.60
44190;DHT22;29856;52.144;5.430;2023-04-03T12:36:39;11.20;92.20
44190;DHT22;29856;52.144;5.430;2023-04-03T12:42:02;11.20;91.20
44190;DHT22;29856;52.144;5.430;2023-04-03T12:47:35;11.30;91.00
44190;DHT22;29856;52.144;5.430;2023-04-03T12:50:02;11.50;90.90
44190;DHT22;29856;52.144;5.430;2023-04-03T12:52:45;11.60;91.40
44190;DHT22;29856;52.144;5.430;2023-04-03T12:55:17;11.40;90.70
44190;DHT22;29856;52.144;5.430;2023-04-03T12:57:43;11.20;90.00
44190;DHT22;29856;52.144;5.430;2023-04-03T13:00:31;11.30;91.50
44190;DHT22;29856;52.144;5.430;2023-04-03T13:02:57;11.30;90.90
44190;DHT22;29856;52.144;5.430;2023-04-03T13:05:23;11.20;91.10
44190;DHT22;29856;52.144;5.430;2023-04-03T13:07:52;11.20;90.80
44190;DHT22;29856;52.144;5.430;2023-04-03T13:10:19;11.00;90.50
44190;DHT22;29856;52.144;5.430;2023-04-03T13:12:56;10.90;89.80
44190;DHT22;29856;52.144;5.430;2023-04-03T13:15:28;11.10;91.60
44190;DHT22;29856;52.144;5.430;2023-04-03T13:17:54;11.00;90.60
44190;DHT22;29856;52.144;5.430;2023-04-03T13:23:00;11.10;92.10
44190;DHT22;29856;52.144;5.430;2023-04-03T13:25:29;11.10;91.20
44190;DHT22;29856;52.144;5.430;2023-04-03T13:27:59;11.30;91.40
44190;DHT22;29856;52.144;5.430;2023-04-03T13:30:36;11.30;91.60
44190;DHT22;29856;52.144;5.430;2023-04-03T13:33:05;11.40;90.60
44190;DHT22;29856;52.144;5.430;2023-04-03T13:35:40;11.50;91.70
44190;DHT22;29856;52.144;5.430;2023-04-03T13:38:22;11.60;91.40
44190;DHT22;29856;52.144;5.430;2023-04-03T13:40:57;11.50;92.10
44190;DHT22;29856;52.144;5.430;2023-04-03T13:43:25;11.90;91.50
44190;DHT22;29856;52.144;5.430;2023-04-03T13:45:55;11.60;90.70
44190;DHT22;29856;52.144;5.430;2023-04-03T13:48:21;11.50;90.50
44190;DHT22;29856;52.144;5.430;2023-04-03T13:51:00;11.60;90.60
44190;DHT22;29856;52.144;5.430;2023-04-03T13:53:26;11.60;90.70
44190;DHT22;29856;52.144;5.430;2023-04-03T13:56:09;11.60;90.50
44190;DHT22;29856;52.144;5.430;2023-04-03T13:58:36;11.50;91.10
44190;DHT22;29856;52.144;5.430;2023-04-03T14:01:22;11.50;90.90
44190;DHT22;29856;52.144;5.430;2023-04-03T14:04:00;11.50;90.80
44190;DHT22;29856;52.144;5.430;2023-04-03T14:06:26;11.70;90.20
44190;DHT22;29856;52.144;5.430;2023-04-03T14:08:52;12.00;91.60
44190;DHT22;29856;52.144;5.430;2023-04-03T14:11:24;11.80;90.30
44190;DHT22;29856;52.144;5.430;2023-04-03T14:13:51;11.60;91.00
44190;DHT22;29856;52.144;5.430;2023-04-03T14:16:26;11.80;91.60
44190;DHT22;29856;52.144;5.430;2023-04-03T14:18:52;11.90;91.20
44190;DHT22;29856;52.144;5.430;2023-04-03T14:21:19;11.90;91.70
44190;DHT22;29856;52.144;5.430;2023-04-03T14:23:45;11.90;91.30
44190;DHT22;29856;52.144;5.430;2023-04-03T14:26:17;12.00;91.00
44190;DHT22;29856;52.144;5.430;2023-04-03T14:28:44;11.90;91.60
44190;DHT22;29856;52.144;5.430;2023-04-03T14:31:11;12.00;90.70
44190;DHT22;29856;52.144;5.430;2023-04-03T14:33:38;12.30;91.50
44190;DHT22;29856;52.144;5.430;2023-04-03T14:36:23;12.20;90.70
44190;DHT22;29856;52.144;5.430;2023-04-03T14:38:50;12.00;91.10
44190;DHT22;29856;52.144;5.430;2023-04-03T14:41:19;12.00;91.00
44190;DHT22;29856;52.144;5.430;2023-04-03T14:43:45;11.80;91.40
44190;DHT22;29856;52.144;5.430;2023-04-03T14:46:18;11.80;91.40
44190;DHT22;29856;52.144;5.430;2023-04-03T14:48:44;11.80;90.50
44190;DHT22;29856;52.144;5.430;2023-04-03T14:51:11;12.00;91.70
44190;DHT22;29856;52.144;5.430;2023-04-03T14:53:37;12.30;91.50
44190;DHT22;29856;52.144;5.430;2023-04-03T14:56:12;12.50;91.80
44190;DHT22;29856;52.144;5.430;2023-04-03T14:58:38;12.70;92.10
44190;DHT22;29856;52.144;5.430;2023-04-03T15:01:03;12.50;92.00
44190;DHT22;29856;52.144;5.430;2023-04-03T15:03:29;12.40;92.60
44190;DHT22;29856;52.144;5.430;2023-04-03T15:05:54;12.10;91.00
44190;DHT22;29856;52.144;5.430;2023-04-03T15:08:23;12.20;91.10
44190;DHT22;29856;52.144;5.430;2023-04-03T15:10:49;11.80;91.50
44190;DHT22;29856;52.144;5.430;2023-04-03T15:13:15;11.90;92.30
44190;DHT22;29856;52.144;5.430;2023-04-03T15:15:41;11.70;91.30
44190;DHT22;29856;52.144;5.430;2023-04-03T15:18:09;11.60;92.10
44190;DHT22;29856;52.144;5.430;2023-04-03T15:20:35;11.70;92.70
44190;DHT22;29856;52.144;5.430;2023-04-03T15:23:01;11.70;92.10
44190;DHT22;29856;52.144;5.430;2023-04-03T15:25:27;12.00;92.30
44190;DHT22;29856;52.144;5.430;2023-04-03T15:27:54;11.90;92.20
44190;DHT22;29856;52.144;5.430;2023-04-03T15:30:20;11.90;91.80
44190;DHT22;29856;52.144;5.430;2023-04-03T15:32:46;11.70;91.80
44190;DHT22;29856;52.144;5.430;2023-04-03T15:35:12;11.60;91.90
44190;DHT22;29856;52.144;5.430;2023-04-03T15:37:37;11.60;92.30
44190;DHT22;29856;52.144;5.430;2023-04-03T15:40:04;11.70;92.00
44190;DHT22;29856;52.144;5.430;2023-04-03T15:42:30;11.80;93.20
44190;DHT22;29856;52.144;5.430;2023-04-03T15:44:55;11.50;92.40
44190;DHT22;29856;52.144;5.430;2023-04-03T15:47:21;11.70;93.40
44190;DHT22;29856;52.144;5.430;2023-04-03T15:49:47;11.60;93.10
44190;DHT22;29856;52.144;5.430;2023-04-03T15:52:12;11.50;92.60
44190;DHT22;29856;52.144;5.430;2023-04-03T15:54:38;11.60;93.20
44190;DHT22;29856;52.144;5.430;2023-04-03T15:57:04;11.60;92.40
44190;DHT22;29856;52.144;5.430;2023-04-03T15:59:29;11.50;92.70
44190;DHT22;29856;52.144;5.430;2023-04-03T16:01:55;11.40;93.30
44190;DHT22;29856;52.144;5.430;2023-04-03T16:04:20;11.30;93.30
44190;DHT22;29856;52.144;5.430;2023-04-03T16:06:47;11.40;93.70
44190;DHT22;29856;52.144;5.430;2023-04-03T16:09:12;11.30;93.90
44190;DHT22;29856;52.144;5.430;2023-04-03T16:11:38;11.30;94.20
44190;DHT22;29856;52.144;5.430;2023-04-03T16:14:03;11.40;94.80
44190;DHT22;29856;52.144;5.430;2023-04-03T16:16:29;11.30;93.90
44190;DHT22;29856;52.144;5.430;2023-04-03T16:18:55;11.00;93.80
44190;DHT22;29856;52.144;5.430;2023-04-03T16:21:21;11.10;94.50
44190;DHT22;29856;52.144;5.430;2023-04-03T16:23:47;11.00;94.60
44190;DHT22;29856;52.144;5.430;2023-04-03T16:26:13;11.10;95.70
44190;DHT22;29856;52.144;5.430;2023-04-03T16:28:39;11.10;94.40
44190;DHT22;29856;52.144;5.430;2023-04-03T16:31:05;10.80;94.30
44190;DHT22;29856;52.144;5.430;2023-04-03T16:33:31;10.70;94.30
44190;DHT22;29856;52.144;5.430;2023-04-03T16:35:57;10.80;94.80
44190;DHT22;29856;52.144;5.430;2023-04-03T16:38:23;10.90;94.80
44190;DHT22;29856;52.144;5.430;2023-04-03T16:40:48;10.70;94.50
44190;DHT22;29856;52.144;5.430;2023-04-03T16:43:15;10.60;94.10
44190;DHT22;29856;52.144;5.430;2023-04-03T16:45:41;10.60;94.20
44190;DHT22;29856;52.144;5.430;2023-04-03T16:48:06;10.60;94.00
44190;DHT22;29856;52.144;5.430;2023-04-03T16:50:32;10.50;94.40
44190;DHT22;29856;52.144;5.430;2023-04-03T16:52:57;10.50;94.60
44190;DHT22;29856;52.144;5.430;2023-04-03T16:55:23;10.60;94.50
44190;DHT22;29856;52.144;5.430;2023-04-03T16:57:48;10.60;94.80
44190;DHT22;29856;52.144;5.430;2023-04-03T17:00:14;10.70;95.10
44190;DHT22;29856;52.144;5.430;2023-04-03T17:02:40;10.50;94.40
44190;DHT22;29856;52.144;5.430;2023-04-03T17:05:06;10.40;94.00
44190;DHT22;29856;52.144;5.430;2023-04-03T17:07:32;10.50;94.90